createdAt,value
2022-09-05T00:02:03.244Z,102112.38
2022-09-05T00:04:56.591Z,102111.97
2022-09-05T00:07:58.770Z,102113.22
2022-09-05T00:11:39.572Z,102104.34
2022-09-05T00:13:39.991Z,102100.16
2022-09-05T00:16:48.980Z,102108.94
2022-09-05T00:24:19.943Z,102110.38
2022-09-05T00:24:29.485Z,102113.50
2022-09-05T00:26:17.072Z,102105.31
2022-09-05T00:29:01.713Z,102113.00
2022-09-05T00:31:53.281Z,102115.06
2022-09-05T00:34:55.711Z,102118.56
2022-09-05T00:37:38.287Z,102117.47
2022-09-05T00:40:25.775Z,102111.72
2022-09-05T00:43:02.267Z,102109.91
2022-09-05T00:45:32.746Z,102111.97
2022-09-05T00:48:19.843Z,102107.28
2022-09-05T00:51:29.370Z,102104.56
2022-09-05T00:54:40.588Z,102114.44
2022-09-05T00:57:35.795Z,102107.69
2022-09-05T01:00:06.745Z,102108.84
2022-09-05T01:03:10.287Z,102111.69
2022-09-05T01:06:14.826Z,102107.53
2022-09-05T01:09:08.091Z,102111.38
2022-09-05T01:11:53.224Z,102111.03
2022-09-05T01:14:49.970Z,102096.28
2022-09-05T01:18:04.544Z,102103.78
2022-09-05T01:20:46.588Z,102105.41
2022-09-05T01:23:18.619Z,102100.75
2022-09-05T01:26:03.807Z,102107.22
2022-09-05T01:29:16.895Z,102107.34
2022-09-05T01:31:45.311Z,102106.13
2022-09-05T01:34:49.224Z,102104.44
2022-09-05T01:37:47.814Z,102104.63
2022-09-05T01:40:28.290Z,102066.44
2022-09-05T01:43:16.343Z,102104.44
2022-09-05T01:46:17.373Z,102106.88
2022-09-05T01:48:46.843Z,102111.81
2022-09-05T01:51:35.997Z,102106.38
2022-09-05T01:54:38.158Z,102099.88
2022-09-05T01:57:16.094Z,102101.22
2022-09-05T01:59:59.477Z,102096.44
2022-09-05T02:02:57.736Z,102095.06
2022-09-05T02:05:49.686Z,102096.09
2022-09-05T02:08:16.133Z,102102.28
2022-09-05T02:10:48.328Z,102094.69
2022-09-05T02:13:18.758Z,102096.03
2022-09-05T02:15:59.004Z,102095.00
2022-09-05T02:18:44.244Z,102091.63
2022-09-05T02:21:22.190Z,102097.13
2022-09-05T02:24:07.015Z,102081.22
2022-09-05T02:26:54.527Z,102109.41
2022-09-05T02:29:30.923Z,102103.41
2022-09-05T02:32:13.266Z,102102.47
2022-09-05T02:34:39.617Z,102114.00
2022-09-05T02:37:16.171Z,102116.53
2022-09-05T02:45:02.987Z,102108.28
2022-09-05T02:45:09.112Z,102100.47
2022-09-05T02:46:33.292Z,102125.88
2022-09-05T02:49:39.491Z,102131.09
2022-09-05T02:57:25.700Z,102118.97
2022-09-05T02:57:39.225Z,102124.28
2022-09-05T02:58:05.846Z,102119.47
2022-09-05T03:00:49.584Z,102122.88
2022-09-05T03:03:20.406Z,102126.28
2022-09-05T03:05:59.776Z,102114.47
2022-09-05T03:09:08.037Z,102117.72
2022-09-05T03:12:28.595Z,102115.78
2022-09-05T03:15:30.199Z,102112.88
2022-09-05T03:18:21.019Z,102118.78
2022-09-05T03:21:29.464Z,102107.22
2022-09-05T03:24:11.141Z,102104.84
2022-09-05T03:27:01.547Z,102106.88
2022-09-05T03:29:28.041Z,102111.09
2022-09-05T03:32:42.068Z,102088.84
2022-09-05T03:35:56.240Z,102118.94
2022-09-05T03:38:49.591Z,102119.66
2022-09-05T03:41:33.928Z,102119.47
2022-09-05T03:44:28.157Z,102119.16
2022-09-05T03:47:32.199Z,102126.63
2022-09-05T03:55:16.579Z,102119.88
2022-09-05T03:57:11.962Z,102125.31
2022-09-05T03:57:12.478Z,102120.22
2022-09-05T04:00:02.400Z,102131.75
2022-09-05T04:08:05.876Z,102134.47
2022-09-05T04:08:23.833Z,102136.50
2022-09-05T04:08:42.768Z,102142.56
2022-09-05T04:11:29.188Z,102136.50
2022-09-05T04:14:26.923Z,102143.03
2022-09-05T04:17:03.474Z,102143.38
2022-09-05T04:19:49.877Z,102102.84
2022-09-05T04:22:25.324Z,102142.78
2022-09-05T04:25:15.383Z,102145.78
2022-09-05T04:28:00.626Z,102144.59
2022-09-05T04:30:58.071Z,102145.66
2022-09-05T04:33:35.999Z,102154.63
2022-09-05T04:36:27.478Z,102147.72
2022-09-05T04:39:19.136Z,102143.00
2022-09-05T04:41:50.574Z,102139.78
2022-09-05T04:44:50.668Z,102137.16
2022-09-05T04:47:35.818Z,102138.16
2022-09-05T04:50:10.601Z,102133.44
2022-09-05T04:52:58.409Z,102143.59
2022-09-05T04:55:51.229Z,102141.06
2022-09-05T04:58:50.737Z,102143.97
2022-09-05T05:06:04.257Z,102141.41
2022-09-05T05:06:19.104Z,102137.25
2022-09-05T05:07:17.038Z,102150.59
2022-09-05T05:09:54.937Z,102150.75
2022-09-05T05:17:54.345Z,102153.53
2022-09-05T05:18:09.767Z,102155.53
2022-09-05T05:19:03.557Z,102162.81
2022-09-05T05:21:33.315Z,102178.31
2022-09-05T05:24:24.216Z,102171.22
2022-09-05T05:27:06.749Z,102165.13
2022-09-05T05:29:48.046Z,102166.81
2022-09-05T05:32:45.535Z,102167.31
2022-09-05T05:35:20.879Z,102176.41
2022-09-05T05:37:53.877Z,102179.44
2022-09-05T05:40:26.478Z,102163.84
2022-09-05T05:43:14.463Z,102180.25
2022-09-05T05:45:41.695Z,102179.88
2022-09-05T05:48:21.914Z,102179.16
2022-09-05T05:51:12.369Z,102183.88
2022-09-05T05:54:01.177Z,102180.97
2022-09-05T05:56:46.123Z,102185.66
2022-09-05T05:59:15.304Z,102185.44
2022-09-05T06:02:19.130Z,102183.59
2022-09-05T06:05:04.339Z,102190.88
2022-09-05T06:09:57.499Z,102191.56
2022-09-05T06:14:56.248Z,102194.44
2022-09-05T06:15:13.361Z,102186.88
2022-09-05T06:17:48.470Z,102192.41
2022-09-05T06:22:04.172Z,102193.59
2022-09-05T06:23:45.529Z,102192.41
2022-09-05T06:26:32.575Z,102192.03
2022-09-05T06:29:34.590Z,102190.94
2022-09-05T06:32:29.792Z,102188.81
2022-09-05T06:35:14.757Z,102191.59
2022-09-05T06:37:44.150Z,102196.75
2022-09-05T06:40:45.812Z,102187.25
2022-09-05T06:43:40.235Z,102198.72
2022-09-05T06:46:25.373Z,102192.00
2022-09-05T06:49:35.828Z,102181.75
2022-09-05T06:52:29.202Z,102181.13
2022-09-05T06:55:17.654Z,102180.44
2022-09-05T06:58:08.961Z,102173.69
2022-09-05T07:00:44.697Z,102179.84
2022-09-05T07:03:30.551Z,102175.22
2022-09-05T07:06:19.824Z,102166.16
2022-09-05T07:08:53.943Z,102173.44
2022-09-05T07:11:31.871Z,102167.63
2022-09-05T07:14:08.871Z,102170.63
2022-09-05T07:16:47.553Z,102174.69
2022-09-05T07:19:41.008Z,102175.63
2022-09-05T07:22:48.890Z,102168.38
2022-09-05T07:25:26.301Z,102176.81
2022-09-05T07:28:28.925Z,102165.25
2022-09-05T07:31:06.681Z,102168.50
2022-09-05T07:33:35.098Z,102167.13
2022-09-05T07:36:11.042Z,102184.56
2022-09-05T07:38:52.159Z,102190.69
2022-09-05T07:41:39.442Z,102190.19
2022-09-05T07:44:13.789Z,102189.69
2022-09-05T07:46:42.200Z,102189.00
2022-09-05T07:49:16.879Z,102189.75
2022-09-05T07:56:50.946Z,102164.56
2022-09-05T07:57:00.082Z,102190.56
2022-09-05T07:57:50.907Z,102199.16
2022-09-05T08:00:26.585Z,102204.41
2022-09-05T08:02:59.124Z,102198.13
2022-09-05T08:05:35.903Z,102205.63
2022-09-05T08:08:12.025Z,102203.34
2022-09-05T08:11:24.015Z,102198.25
2022-09-05T08:13:40.242Z,102207.06
2022-09-05T08:16:13.708Z,102205.13
2022-09-05T08:19:07.645Z,102200.81
2022-09-05T08:21:49.693Z,102200.16
2022-09-05T08:24:20.426Z,102204.91
2022-09-05T08:27:01.979Z,102203.84
2022-09-05T08:29:39.008Z,102207.78
2022-09-05T08:32:13.161Z,102197.25
2022-09-05T08:34:51.414Z,102202.66
2022-09-05T08:37:21.983Z,102191.50
2022-09-05T08:40:10.354Z,102200.66
2022-09-05T08:46:09.256Z,102190.69
2022-09-05T08:46:39.568Z,102176.59
2022-09-05T08:49:36.419Z,102183.03
2022-09-05T08:52:07.739Z,102187.31
2022-09-05T08:55:14.158Z,102187.00
2022-09-05T08:57:46.837Z,102188.31
2022-09-05T09:00:24.632Z,102176.63
2022-09-05T09:03:17.344Z,102176.28
2022-09-05T09:06:13.913Z,102164.75
2022-09-05T09:09:05.336Z,102161.47
2022-09-05T09:11:53.067Z,102159.31
2022-09-05T09:14:32.655Z,102159.63
2022-09-05T09:17:36.273Z,102158.63
2022-09-05T09:20:25.425Z,102149.72
2022-09-05T09:22:57.959Z,102157.94
2022-09-05T09:25:33.975Z,102151.25
2022-09-05T09:28:46.772Z,102152.81
2022-09-05T09:31:04.646Z,102148.84
2022-09-05T09:33:43.546Z,102147.78
2022-09-05T09:36:27.281Z,102149.75
2022-09-05T09:39:08.099Z,102144.34
2022-09-05T09:42:33.083Z,102144.25
2022-09-05T09:45:27.704Z,102148.03
2022-09-05T09:47:58.623Z,102146.00
2022-09-05T09:50:41.866Z,102136.72
2022-09-05T09:53:37.554Z,102140.97
2022-09-05T09:56:32.596Z,102141.75
2022-09-05T09:59:54.467Z,102132.00
2022-09-05T10:06:30.198Z,102133.63
2022-09-05T10:10:52.850Z,102131.97
2022-09-05T10:10:55.122Z,102127.50
2022-09-05T10:12:01.145Z,102134.34
2022-09-05T10:15:31.627Z,102130.53
2022-09-05T10:18:05.073Z,102124.38
2022-09-05T10:20:52.299Z,102123.13
2022-09-05T10:23:35.663Z,102120.38
2022-09-05T10:26:30.735Z,102119.50
2022-09-05T10:29:37.181Z,102119.41
2022-09-05T10:35:02.924Z,102120.53
2022-09-05T10:35:22.653Z,102112.22
2022-09-05T10:38:10.867Z,102111.44
2022-09-05T10:41:13.194Z,102110.91
2022-09-05T10:43:29.928Z,102108.88
2022-09-05T10:46:03.951Z,102110.31
2022-09-05T10:48:40.510Z,102102.03
2022-09-05T10:51:27.347Z,102101.97
2022-09-05T10:54:32.830Z,102106.66
2022-09-05T10:57:11.935Z,102098.66
2022-09-05T11:02:23.991Z,102090.06
2022-09-05T11:02:57.750Z,102087.88
2022-09-05T11:05:33.370Z,102086.50
2022-09-05T11:08:18.704Z,102093.97
2022-09-05T11:10:56.645Z,102095.66
2022-09-05T11:13:49.882Z,102090.63
2022-09-05T11:16:40.229Z,102094.00
2022-09-05T11:19:18.291Z,102089.53
2022-09-05T11:22:03.993Z,102086.44
2022-09-05T11:24:55.803Z,102085.34
2022-09-05T11:27:44.056Z,102086.19
2022-09-05T11:30:28.989Z,102086.03
2022-09-05T11:39:53.714Z,102076.66
2022-09-05T11:40:00.056Z,102089.78
2022-09-05T11:40:02.215Z,102080.25
2022-09-05T11:42:33.686Z,102081.50
2022-09-05T11:45:15.805Z,102070.88
2022-09-05T11:47:45.195Z,102074.59
2022-09-05T11:50:49.572Z,102067.66
2022-09-05T11:53:43.923Z,102068.22
2022-09-05T11:56:29.163Z,102071.06
2022-09-05T11:59:33.611Z,102061.63
2022-09-05T12:02:16.816Z,102055.84
2022-09-05T12:05:48.589Z,102055.34
2022-09-05T12:08:26.282Z,102060.91
2022-09-05T12:11:34.162Z,102055.28
2022-09-05T12:14:25.590Z,102056.78
2022-09-05T12:17:35.467Z,102049.16
2022-09-05T12:20:16.727Z,102051.75
2022-09-05T12:23:47.494Z,102051.94
2022-09-05T12:27:44.956Z,102049.28
2022-09-05T12:29:34.075Z,102043.50
2022-09-05T12:33:52.400Z,102045.19
2022-09-05T12:36:07.151Z,102049.44
2022-09-05T12:40:46.172Z,102032.38
2022-09-05T12:41:38.267Z,102047.88
2022-09-05T12:44:40.157Z,102037.09
2022-09-05T12:47:18.834Z,102034.84
2022-09-05T12:50:03.492Z,102027.28
2022-09-05T12:52:46.587Z,102030.34
2022-09-05T12:55:33.600Z,102026.06
2022-09-05T13:02:48.695Z,102016.84
2022-09-05T13:03:06.073Z,102024.06
2022-09-05T13:04:13.091Z,102023.38
2022-09-05T13:06:46.290Z,102013.75
2022-09-05T13:09:58.281Z,102013.56
2022-09-05T13:14:47.561Z,102018.09
2022-09-05T13:15:26.985Z,102017.66
2022-09-05T13:18:18.754Z,102016.41
2022-09-05T13:20:59.067Z,102016.38
2022-09-05T13:23:32.079Z,102019.63
2022-09-05T13:26:10.204Z,102023.09
2022-09-05T13:29:10.729Z,102018.31
2022-09-05T13:37:55.196Z,102014.47
2022-09-05T13:38:12.078Z,102008.59
2022-09-05T13:38:17.619Z,101996.72
2022-09-05T13:40:41.734Z,102011.00
2022-09-05T13:43:11.811Z,101998.19
2022-09-05T13:46:10.868Z,102003.91
2022-09-05T13:51:53.855Z,101992.09
2022-09-05T13:54:36.390Z,101994.25
2022-09-05T13:57:32.540Z,101989.59
2022-09-05T14:00:08.586Z,101989.91
2022-09-05T14:06:45.079Z,101982.94
2022-09-05T14:09:40.109Z,101988.75
2022-09-05T14:12:42.247Z,101976.72
2022-09-05T14:15:43.354Z,101971.78
2022-09-05T14:18:22.340Z,101980.44
2022-09-05T14:21:16.449Z,101977.75
2022-09-05T14:23:45.900Z,101979.63
2022-09-05T14:26:21.687Z,101984.25
2022-09-05T14:29:00.055Z,101971.91
2022-09-05T14:37:05.016Z,101961.34
2022-09-05T14:37:48.498Z,101967.25
2022-09-05T14:37:51.224Z,101959.75
2022-09-05T14:41:04.713Z,101960.66
2022-09-05T14:44:01.380Z,101959.53
2022-09-05T14:46:49.749Z,101958.56
2022-09-05T14:49:49.405Z,101950.88
2022-09-05T14:52:30.543Z,101945.63
2022-09-05T15:02:43.392Z,101945.81
2022-09-05T15:02:50.861Z,101937.88
2022-09-05T15:06:33.292Z,101939.88
2022-09-05T15:11:53.618Z,101934.31
2022-09-05T15:12:26.086Z,101926.28
2022-09-05T15:14:38.342Z,101914.34
2022-09-05T15:17:05.823Z,101924.78
2022-09-05T15:20:06.850Z,101934.19
2022-09-05T15:22:36.344Z,101931.84
2022-09-05T15:25:17.248Z,101901.50
2022-09-05T15:27:46.082Z,101902.38
2022-09-05T15:30:35.927Z,101923.69
2022-09-05T15:33:25.879Z,101932.38
2022-09-05T15:35:53.399Z,101913.75
2022-09-05T15:38:30.804Z,101927.13
2022-09-05T15:41:19.545Z,101922.09
2022-09-05T15:44:01.683Z,101923.22
2022-09-05T15:46:37.107Z,101925.22
2022-09-05T15:49:09.251Z,101923.31
2022-09-05T15:51:44.534Z,101923.06
2022-09-05T15:54:37.304Z,101913.69
2022-09-05T15:57:08.827Z,101915.09
2022-09-05T15:59:47.249Z,101912.06
2022-09-05T16:02:20.964Z,101911.78
2022-09-05T16:10:26.931Z,101919.22
2022-09-05T16:10:49.375Z,101915.63
2022-09-05T16:14:27.931Z,101911.75
2022-09-05T16:23:12.081Z,101921.97
2022-09-05T16:23:23.671Z,101907.28
2022-09-05T16:23:26.014Z,101905.53
2022-09-05T16:25:51.171Z,101909.75
2022-09-05T16:28:25.660Z,101899.91
2022-09-05T16:31:00.608Z,101911.31
2022-09-05T16:33:31.876Z,101901.31
2022-09-05T16:36:21.455Z,101909.19
2022-09-05T16:39:05.039Z,101897.34
2022-09-05T16:41:40.677Z,101901.91
2022-09-05T16:44:32.544Z,101902.97
2022-09-05T16:47:36.431Z,101899.31
2022-09-05T16:50:16.466Z,101888.97
2022-09-05T16:52:43.406Z,101897.50
2022-09-05T16:55:37.529Z,101904.13
2022-09-05T16:58:30.953Z,101871.78
2022-09-05T17:01:16.077Z,101895.09
2022-09-05T17:03:56.687Z,101892.22
2022-09-05T17:06:45.547Z,101880.09
2022-09-05T17:09:22.570Z,101887.38
2022-09-05T17:12:01.487Z,101884.97
2022-09-05T17:14:40.065Z,101881.31
2022-09-05T17:17:40.182Z,101881.22
2022-09-05T17:20:09.623Z,101882.19
2022-09-05T17:27:25.905Z,101861.41
2022-09-05T17:29:36.338Z,101878.66
2022-09-05T17:29:44.142Z,101877.47
2022-09-05T17:31:57.698Z,101872.34
2022-09-05T17:34:54.460Z,101875.88
2022-09-05T17:37:40.038Z,101874.97
2022-09-05T17:40:29.989Z,101862.84
2022-09-05T17:43:08.225Z,101868.25
2022-09-05T17:45:48.825Z,101871.72
2022-09-05T17:48:35.999Z,101878.00
2022-09-05T17:51:02.403Z,101889.09
2022-09-05T17:53:33.144Z,101881.06
2022-09-05T17:55:59.494Z,101882.75
2022-09-05T17:58:48.961Z,101883.09
2022-09-05T18:01:26.816Z,101874.78
2022-09-05T18:04:17.164Z,101879.94
2022-09-05T18:06:49.004Z,101887.19
2022-09-05T18:09:47.966Z,101892.72
2022-09-05T18:13:14.182Z,101884.31
2022-09-05T18:15:39.319Z,101884.78
2022-09-05T18:18:08.783Z,101863.50
2022-09-05T18:23:54.704Z,101900.13
2022-09-05T18:26:24.467Z,101897.53
2022-09-05T18:29:02.448Z,101884.94
2022-09-05T18:31:41.680Z,101898.03
2022-09-05T18:34:21.376Z,101896.78
2022-09-05T18:36:57.228Z,101897.03
2022-09-05T18:39:24.267Z,101896.16
2022-09-05T18:42:33.634Z,101890.28
2022-09-05T18:45:15.180Z,101895.22
2022-09-05T18:48:12.064Z,101901.91
2022-09-05T18:50:46.920Z,101897.97
2022-09-05T18:53:19.095Z,101906.16
2022-09-05T18:56:13.885Z,101905.88
2022-09-05T18:59:24.391Z,101904.16
2022-09-05T19:02:02.669Z,101906.13
2022-09-05T19:04:40.307Z,101914.03
2022-09-05T19:07:17.164Z,101887.78
2022-09-05T19:10:35.055Z,101911.03
2022-09-05T19:13:04.308Z,101918.88
2022-09-05T19:15:37.346Z,101914.63
2022-09-05T19:18:27.207Z,101916.16
2022-09-05T19:21:12.098Z,101911.00
2022-09-05T19:24:02.639Z,101908.66
2022-09-05T19:26:32.065Z,101903.94
2022-09-05T19:36:58.828Z,101908.22
2022-09-05T19:36:59.857Z,101914.16
2022-09-05T19:37:08.194Z,101899.41
2022-09-05T19:37:46.493Z,101927.75
2022-09-05T19:47:25.355Z,101923.78
2022-09-05T19:47:43.623Z,101922.16
2022-09-05T19:47:51.864Z,101919.50
2022-09-05T19:49:12.297Z,101918.88
2022-09-05T19:51:43.425Z,101924.41
2022-09-05T19:54:23.685Z,101922.34
2022-09-05T19:56:50.261Z,101920.16
2022-09-05T19:59:34.391Z,101916.63
2022-09-05T20:02:02.359Z,101915.97
2022-09-05T20:04:33.623Z,101920.16
2022-09-05T20:07:13.598Z,101918.34
2022-09-05T20:09:46.945Z,101919.47
2022-09-05T20:12:23.952Z,101916.28
2022-09-05T20:14:51.298Z,101906.47
2022-09-05T20:17:37.152Z,101916.53
2022-09-05T20:20:10.845Z,101914.06
2022-09-05T20:22:48.682Z,101922.09
2022-09-05T20:25:35.646Z,101905.75
2022-09-05T20:28:10.182Z,101920.00
2022-09-05T20:30:42.377Z,101925.88
2022-09-05T20:33:22.323Z,101901.13
2022-09-05T20:40:49.888Z,101915.84
2022-09-05T20:43:17.263Z,101912.47
2022-09-05T20:43:30.867Z,101917.94
2022-09-05T20:44:32.870Z,101912.69
2022-09-05T20:48:58.838Z,101922.19
2022-09-05T20:54:06.588Z,101907.31
2022-09-05T20:54:22.766Z,101912.34
2022-09-05T20:55:42.008Z,101910.91
2022-09-05T20:58:18.014Z,101907.97
2022-09-05T21:01:21.806Z,101928.34
2022-09-05T21:03:39.736Z,101919.16
2022-09-05T21:06:35.468Z,101933.84
2022-09-05T21:09:24.707Z,101921.50
2022-09-05T21:11:56.286Z,101918.13
2022-09-05T21:14:26.548Z,101919.19
2022-09-05T21:16:57.734Z,101919.41
2022-09-05T21:19:29.029Z,101923.41
2022-09-05T21:22:07.296Z,101918.16
2022-09-05T21:24:33.976Z,101917.94
2022-09-05T21:27:23.432Z,101913.72
2022-09-05T21:29:58.952Z,101906.78
2022-09-05T21:32:33.419Z,101896.69
2022-09-05T21:35:17.396Z,101892.91
2022-09-05T21:37:53.530Z,101896.06
2022-09-05T21:40:21.240Z,101897.94
2022-09-05T21:45:08.511Z,101889.09
2022-09-05T21:47:40.905Z,101861.59
2022-09-05T21:48:22.528Z,101888.00
2022-09-05T21:50:51.230Z,101871.03
2022-09-05T21:54:36.550Z,101889.47
2022-09-05T21:59:32.588Z,101890.75
2022-09-05T21:59:36.467Z,101889.91
2022-09-05T22:02:07.331Z,101891.81
2022-09-05T22:04:37.207Z,101876.09
2022-09-05T22:07:14.406Z,101879.66
2022-09-05T22:09:40.880Z,101881.53
2022-09-05T22:12:30.294Z,101881.97
2022-09-05T22:14:54.260Z,101886.78
2022-09-05T22:17:22.250Z,101881.09
2022-09-05T22:19:50.083Z,101875.66
2022-09-05T22:22:17.867Z,101880.09
2022-09-05T22:24:50.287Z,101841.72
2022-09-05T22:27:19.843Z,101868.53
2022-09-05T22:29:50.369Z,101868.13
2022-09-05T22:32:18.098Z,101848.63
2022-09-05T22:34:59.386Z,101852.63
2022-09-05T22:37:26.732Z,101844.63
2022-09-05T22:39:53.177Z,101841.69
2022-09-05T22:42:19.648Z,101840.47
2022-09-05T22:44:46.114Z,101836.25
2022-09-05T22:47:12.516Z,101846.78
2022-09-05T22:49:39.197Z,101834.38
2022-09-05T22:52:07.507Z,101836.69
2022-09-05T22:54:37.096Z,101835.41
2022-09-05T22:57:04.584Z,101836.91
2022-09-05T22:59:31.595Z,101831.44
2022-09-05T23:01:58.243Z,101829.38
2022-09-05T23:04:24.844Z,101832.09
2022-09-05T23:06:51.307Z,101834.19
2022-09-05T23:09:17.696Z,101839.66
2022-09-05T23:11:44.122Z,101837.75
2022-09-05T23:14:10.572Z,101832.50
2022-09-05T23:16:36.977Z,101818.25
2022-09-05T23:19:03.615Z,101823.28
2022-09-05T23:21:30.034Z,101819.97
2022-09-05T23:23:56.502Z,101822.03
2022-09-05T23:26:23.044Z,101815.97
2022-09-05T23:28:49.481Z,101806.31
2022-09-05T23:31:15.986Z,101796.25
2022-09-05T23:33:42.615Z,101783.03
2022-09-05T23:36:12.554Z,101799.81
2022-09-05T23:38:41.027Z,101793.09
2022-09-05T23:41:10.300Z,101785.56
2022-09-05T23:43:36.688Z,101781.78
2022-09-05T23:46:04.167Z,101778.41
2022-09-05T23:48:31.087Z,101757.50
2022-09-05T23:50:57.559Z,101776.13
2022-09-05T23:53:24.053Z,101783.66
2022-09-05T23:55:50.460Z,101779.25
2022-09-05T23:58:17.113Z,101774.66
